sensor_id;sensor_type;location;lat;lon;timestamp;P1;durP1;ratioP1;P2;durP2;ratioP2
59161;SDS011;44942;48.936;8.260;2023-02-01T00:00:24;14.03;;;7.53;;
59161;SDS011;44942;48.936;8.260;2023-02-01T00:05:24;14.87;;;6.97;;
59161;SDS011;44942;48.936;8.260;2023-02-01T00:10:25;14.67;;;7.17;;
59161;SDS011;44942;48.936;8.260;2023-02-01T00:15:26;14.87;;;6.97;;
59161;SDS011;44942;48.936;8.260;2023-02-01T00:20:26;12.67;;;6.47;;
59161;SDS011;44942;48.936;8.260;2023-02-01T00:25:27;12.53;;;6.97;;
59161;SDS011;44942;48.936;8.260;2023-02-01T00:30:27;13.60;;;6.17;;
59161;SDS011;44942;48.936;8.260;2023-02-01T00:35:28;18.33;;;6.33;;
59161;SDS011;44942;48.936;8.260;2023-02-01T00:40:28;13.33;;;5.97;;
59161;SDS011;44942;48.936;8.260;2023-02-01T00:45:29;14.87;;;6.73;;
59161;SDS011;44942;48.936;8.260;2023-02-01T00:50:29;10.53;;;5.80;;
59161;SDS011;44942;48.936;8.260;2023-02-01T00:55:30;13.27;;;5.70;;
59161;SDS011;44942;48.936;8.260;2023-02-01T01:00:31;16.67;;;5.53;;
59161;SDS011;44942;48.936;8.260;2023-02-01T01:05:32;12.80;;;5.85;;
59161;SDS011;44942;48.936;8.260;2023-02-01T01:10:32;12.87;;;5.90;;
59161;SDS011;44942;48.936;8.260;2023-02-01T01:15:36;11.80;;;5.80;;
59161;SDS011;44942;48.936;8.260;2023-02-01T01:20:38;8.90;;;4.97;;
59161;SDS011;44942;48.936;8.260;2023-02-01T01:25:40;9.73;;;5.20;;
59161;SDS011;44942;48.936;8.260;2023-02-01T01:30:40;14.90;;;5.57;;
59161;SDS011;44942;48.936;8.260;2023-02-01T01:35:41;8.40;;;5.50;;
59161;SDS011;44942;48.936;8.260;2023-02-01T01:40:45;9.87;;;4.47;;
59161;SDS011;44942;48.936;8.260;2023-02-01T01:45:46;9.38;;;4.90;;
59161;SDS011;44942;48.936;8.260;2023-02-01T01:50:50;9.13;;;5.07;;
59161;SDS011;44942;48.936;8.260;2023-02-01T01:55:56;9.30;;;5.05;;
59161;SDS011;44942;48.936;8.260;2023-02-01T02:00:57;9.70;;;4.25;;
59161;SDS011;44942;48.936;8.260;2023-02-01T02:05:58;9.47;;;4.70;;
59161;SDS011;44942;48.936;8.260;2023-02-01T02:11:00;8.48;;;4.30;;
59161;SDS011;44942;48.936;8.260;2023-02-01T02:42:29;9.90;;;4.23;;
59161;SDS011;44942;48.936;8.260;2023-02-01T02:48:16;8.63;;;4.22;;
59161;SDS011;44942;48.936;8.260;2023-02-01T02:53:27;9.10;;;4.13;;
59161;SDS011;44942;48.936;8.260;2023-02-01T02:58:52;7.82;;;4.40;;
59161;SDS011;44942;48.936;8.260;2023-02-01T03:04:12;7.45;;;3.97;;
59161;SDS011;44942;48.936;8.260;2023-02-01T03:09:28;7.45;;;4.07;;
59161;SDS011;44942;48.936;8.260;2023-02-01T03:14:34;8.05;;;3.75;;
59161;SDS011;44942;48.936;8.260;2023-02-01T03:19:39;7.97;;;3.90;;
59161;SDS011;44942;48.936;8.260;2023-02-01T03:24:54;6.40;;;3.80;;
59161;SDS011;44942;48.936;8.260;2023-02-01T03:30:00;5.93;;;3.55;;
59161;SDS011;44942;48.936;8.260;2023-02-01T03:40:21;5.65;;;3.38;;
59161;SDS011;44942;48.936;8.260;2023-02-01T03:45:24;6.90;;;3.45;;
59161;SDS011;44942;48.936;8.260;2023-02-01T03:50:28;6.00;;;3.75;;
59161;SDS011;44942;48.936;8.260;2023-02-01T03:55:31;5.32;;;3.45;;
59161;SDS011;44942;48.936;8.260;2023-02-01T04:00:32;5.10;;;3.25;;
59161;SDS011;44942;48.936;8.260;2023-02-01T04:05:33;4.60;;;3.20;;
59161;SDS011;44942;48.936;8.260;2023-02-01T04:10:34;4.18;;;2.92;;
59161;SDS011;44942;48.936;8.260;2023-02-01T04:15:34;6.00;;;3.50;;
59161;SDS011;44942;48.936;8.260;2023-02-01T04:20:35;4.87;;;3.07;;
59161;SDS011;44942;48.936;8.260;2023-02-01T04:25:36;6.27;;;3.23;;
59161;SDS011;44942;48.936;8.260;2023-02-01T04:30:36;4.73;;;3.00;;
59161;SDS011;44942;48.936;8.260;2023-02-01T04:35:37;5.10;;;3.10;;
59161;SDS011;44942;48.936;8.260;2023-02-01T04:40:37;4.03;;;3.00;;
59161;SDS011;44942;48.936;8.260;2023-02-01T04:45:38;6.00;;;2.17;;
59161;SDS011;44942;48.936;8.260;2023-02-01T04:50:38;7.70;;;3.33;;
59161;SDS011;44942;48.936;8.260;2023-02-01T04:55:39;7.07;;;3.07;;
59161;SDS011;44942;48.936;8.260;2023-02-01T05:00:40;6.43;;;2.73;;
59161;SDS011;44942;48.936;8.260;2023-02-01T05:05:40;10.50;;;3.30;;
59161;SDS011;44942;48.936;8.260;2023-02-01T05:10:41;7.60;;;3.33;;
59161;SDS011;44942;48.936;8.260;2023-02-01T05:15:41;7.67;;;2.70;;
59161;SDS011;44942;48.936;8.260;2023-02-01T05:20:42;4.30;;;2.50;;
59161;SDS011;44942;48.936;8.260;2023-02-01T05:25:43;4.53;;;2.63;;
59161;SDS011;44942;48.936;8.260;2023-02-01T05:30:43;5.83;;;2.87;;
59161;SDS011;44942;48.936;8.260;2023-02-01T05:35:44;5.70;;;2.77;;
59161;SDS011;44942;48.936;8.260;2023-02-01T05:40:44;5.57;;;2.60;;
59161;SDS011;44942;48.936;8.260;2023-02-01T05:45:51;3.60;;;2.67;;
59161;SDS011;44942;48.936;8.260;2023-02-01T05:50:52;5.68;;;2.75;;
59161;SDS011;44942;48.936;8.260;2023-02-01T05:55:52;7.43;;;3.00;;
59161;SDS011;44942;48.936;8.260;2023-02-01T06:00:53;11.60;;;3.03;;
59161;SDS011;44942;48.936;8.260;2023-02-01T06:05:53;16.40;;;2.87;;
59161;SDS011;44942;48.936;8.260;2023-02-01T06:10:58;14.10;;;3.00;;
59161;SDS011;44942;48.936;8.260;2023-02-01T06:16:03;12.50;;;2.67;;
59161;SDS011;44942;48.936;8.260;2023-02-01T06:21:05;10.00;;;2.78;;
59161;SDS011;44942;48.936;8.260;2023-02-01T06:26:06;13.50;;;2.67;;
59161;SDS011;44942;48.936;8.260;2023-02-01T06:31:10;15.75;;;2.60;;
59161;SDS011;44942;48.936;8.260;2023-02-01T06:36:10;5.73;;;2.40;;
59161;SDS011;44942;48.936;8.260;2023-02-01T06:41:15;6.50;;;2.60;;
59161;SDS011;44942;48.936;8.260;2023-02-01T06:46:16;7.00;;;2.47;;
59161;SDS011;44942;48.936;8.260;2023-02-01T06:56:22;7.68;;;3.30;;
59161;SDS011;44942;48.936;8.260;2023-02-01T07:01:23;5.55;;;2.97;;
59161;SDS011;44942;48.936;8.260;2023-02-01T07:06:24;6.63;;;3.57;;
59161;SDS011;44942;48.936;8.260;2023-02-01T07:11:24;5.43;;;3.70;;
59161;SDS011;44942;48.936;8.260;2023-02-01T07:16:27;5.22;;;3.17;;
59161;SDS011;44942;48.936;8.260;2023-02-01T07:21:28;4.47;;;2.88;;
59161;SDS011;44942;48.936;8.260;2023-02-01T07:26:29;6.70;;;2.07;;
59161;SDS011;44942;48.936;8.260;2023-02-01T07:31:30;5.20;;;1.83;;
59161;SDS011;44942;48.936;8.260;2023-02-01T07:36:30;4.27;;;2.30;;
59161;SDS011;44942;48.936;8.260;2023-02-01T07:41:31;4.70;;;2.40;;
59161;SDS011;44942;48.936;8.260;2023-02-01T07:46:31;9.27;;;2.40;;
59161;SDS011;44942;48.936;8.260;2023-02-01T07:51:32;4.77;;;2.23;;
59161;SDS011;44942;48.936;8.260;2023-02-01T07:56:32;3.53;;;2.20;;
59161;SDS011;44942;48.936;8.260;2023-02-01T08:01:33;3.57;;;2.10;;
59161;SDS011;44942;48.936;8.260;2023-02-01T08:06:34;3.93;;;2.10;;
59161;SDS011;44942;48.936;8.260;2023-02-01T08:11:34;3.90;;;2.03;;
59161;SDS011;44942;48.936;8.260;2023-02-01T08:16:37;6.10;;;2.00;;
59161;SDS011;44942;48.936;8.260;2023-02-01T08:21:39;5.13;;;2.17;;
59161;SDS011;44942;48.936;8.260;2023-02-01T08:26:39;4.93;;;1.90;;
59161;SDS011;44942;48.936;8.260;2023-02-01T08:31:40;3.27;;;1.60;;
59161;SDS011;44942;48.936;8.260;2023-02-01T08:36:41;5.55;;;1.95;;
59161;SDS011;44942;48.936;8.260;2023-02-01T08:41:42;3.50;;;1.80;;
59161;SDS011;44942;48.936;8.260;2023-02-01T08:47:02;5.13;;;1.80;;
59161;SDS011;44942;48.936;8.260;2023-02-01T08:52:03;7.30;;;1.70;;
59161;SDS011;44942;48.936;8.260;2023-02-01T08:57:04;4.43;;;2.00;;
59161;SDS011;44942;48.936;8.260;2023-02-01T09:02:05;4.87;;;1.80;;
59161;SDS011;44942;48.936;8.260;2023-02-01T09:07:05;5.77;;;1.63;;
59161;SDS011;44942;48.936;8.260;2023-02-01T09:12:06;5.97;;;1.67;;
59161;SDS011;44942;48.936;8.260;2023-02-01T09:17:07;7.17;;;1.60;;
59161;SDS011;44942;48.936;8.260;2023-02-01T09:22:07;8.17;;;1.80;;
59161;SDS011;44942;48.936;8.260;2023-02-01T09:27:08;2.72;;;1.08;;
59161;SDS011;44942;48.936;8.260;2023-02-01T09:32:09;4.68;;;1.80;;
59161;SDS011;44942;48.936;8.260;2023-02-01T09:37:10;5.10;;;1.80;;
59161;SDS011;44942;48.936;8.260;2023-02-01T09:42:22;5.50;;;1.77;;
59161;SDS011;44942;48.936;8.260;2023-02-01T09:47:25;4.82;;;1.70;;
59161;SDS011;44942;48.936;8.260;2023-02-01T09:52:29;7.65;;;1.42;;
59161;SDS011;44942;48.936;8.260;2023-02-01T09:57:43;4.95;;;1.80;;
59161;SDS011;44942;48.936;8.260;2023-02-01T10:02:50;6.07;;;1.45;;
59161;SDS011;44942;48.936;8.260;2023-02-01T10:28:52;6.03;;;1.40;;
59161;SDS011;44942;48.936;8.260;2023-02-01T10:33:59;4.35;;;1.55;;
59161;SDS011;44942;48.936;8.260;2023-02-01T10:39:04;5.72;;;1.55;;
59161;SDS011;44942;48.936;8.260;2023-02-01T10:44:11;5.03;;;1.50;;
59161;SDS011;44942;48.936;8.260;2023-02-01T10:49:20;4.00;;;1.63;;
59161;SDS011;44942;48.936;8.260;2023-02-01T10:54:36;3.80;;;1.40;;
59161;SDS011;44942;48.936;8.260;2023-02-01T10:59:38;3.60;;;1.50;;
59161;SDS011;44942;48.936;8.260;2023-02-01T11:04:39;5.10;;;1.40;;
59161;SDS011;44942;48.936;8.260;2023-02-01T11:09:40;8.93;;;1.70;;
59161;SDS011;44942;48.936;8.260;2023-02-01T11:14:41;4.72;;;1.52;;
59161;SDS011;44942;48.936;8.260;2023-02-01T11:19:55;5.30;;;1.27;;
59161;SDS011;44942;48.936;8.260;2023-02-01T11:24:58;6.75;;;1.50;;
59161;SDS011;44942;48.936;8.260;2023-02-01T11:30:01;6.72;;;1.75;;
59161;SDS011;44942;48.936;8.260;2023-02-01T11:35:04;5.88;;;1.55;;
59161;SDS011;44942;48.936;8.260;2023-02-01T11:45:20;5.63;;;1.45;;
59161;SDS011;44942;48.936;8.260;2023-02-01T11:50:34;3.30;;;1.30;;
59161;SDS011;44942;48.936;8.260;2023-02-01T12:01:17;50.05;;;4.20;;
59161;SDS011;44942;48.936;8.260;2023-02-01T12:12:24;82.95;;;6.40;;
59161;SDS011;44942;48.936;8.260;2023-02-01T12:17:51;122.97;;;8.82;;
59161;SDS011;44942;48.936;8.260;2023-02-01T12:23:27;135.95;;;11.32;;
59161;SDS011;44942;48.936;8.260;2023-02-01T12:28:50;177.38;;;12.60;;
59161;SDS011;44942;48.936;8.260;2023-02-01T12:40:00;223.48;;;16.02;;
59161;SDS011;44942;48.936;8.260;2023-02-01T12:50:32;280.77;;;20.05;;
59161;SDS011;44942;48.936;8.260;2023-02-01T12:55:43;263.58;;;18.83;;
59161;SDS011;44942;48.936;8.260;2023-02-01T13:01:00;279.90;;;22.65;;
59161;SDS011;44942;48.936;8.260;2023-02-01T13:06:08;271.27;;;21.70;;
59161;SDS011;44942;48.936;8.260;2023-02-01T13:11:12;243.35;;;20.40;;
59161;SDS011;44942;48.936;8.260;2023-02-01T13:16:23;235.63;;;21.85;;
59161;SDS011;44942;48.936;8.260;2023-02-01T13:21:39;311.10;;;24.70;;
59161;SDS011;44942;48.936;8.260;2023-02-01T13:26:43;269.90;;;21.17;;
59161;SDS011;44942;48.936;8.260;2023-02-01T13:37:23;265.17;;;94.93;;
59161;SDS011;44942;48.936;8.260;2023-02-01T13:42:52;245.80;;;85.15;;
59161;SDS011;44942;48.936;8.260;2023-02-01T13:47:59;231.23;;;76.07;;
59161;SDS011;44942;48.936;8.260;2023-02-01T13:53:26;203.98;;;68.75;;
59161;SDS011;44942;48.936;8.260;2023-02-01T14:03:44;156.52;;;58.85;;
59161;SDS011;44942;48.936;8.260;2023-02-01T14:08:46;150.63;;;54.20;;
59161;SDS011;44942;48.936;8.260;2023-02-01T14:19:23;118.63;;;47.33;;
59161;SDS011;44942;48.936;8.260;2023-02-01T14:24:34;108.70;;;42.75;;
59161;SDS011;44942;48.936;8.260;2023-02-01T14:29:37;101.00;;;38.00;;
59161;SDS011;44942;48.936;8.260;2023-02-01T14:40:01;88.53;;;35.20;;
59161;SDS011;44942;48.936;8.260;2023-02-01T15:01:22;65.40;;;27.33;;
59161;SDS011;44942;48.936;8.260;2023-02-01T15:11:59;50.00;;;21.98;;
59161;SDS011;44942;48.936;8.260;2023-02-01T15:17:00;49.13;;;22.08;;
59161;SDS011;44942;48.936;8.260;2023-02-01T15:22:00;51.22;;;21.58;;
59161;SDS011;44942;48.936;8.260;2023-02-01T15:27:02;39.63;;;19.63;;
59161;SDS011;44942;48.936;8.260;2023-02-01T15:32:04;49.97;;;18.20;;
59161;SDS011;44942;48.936;8.260;2023-02-01T15:37:06;38.38;;;16.30;;
59161;SDS011;44942;48.936;8.260;2023-02-01T15:42:13;35.47;;;15.97;;
59161;SDS011;44942;48.936;8.260;2023-02-01T15:47:22;32.88;;;15.55;;
59161;SDS011;44942;48.936;8.260;2023-02-01T15:57:35;32.05;;;14.38;;
59161;SDS011;44942;48.936;8.260;2023-02-01T16:02:43;32.42;;;14.20;;
59161;SDS011;44942;48.936;8.260;2023-02-01T16:08:00;35.47;;;12.70;;
59161;SDS011;44942;48.936;8.260;2023-02-01T16:13:10;53.00;;;13.57;;
59161;SDS011;44942;48.936;8.260;2023-02-01T16:18:12;46.83;;;13.70;;
59161;SDS011;44942;48.936;8.260;2023-02-01T16:23:13;30.92;;;11.90;;
59161;SDS011;44942;48.936;8.260;2023-02-01T16:28:14;26.73;;;11.60;;
59161;SDS011;44942;48.936;8.260;2023-02-01T16:33:15;31.97;;;11.23;;
59161;SDS011;44942;48.936;8.260;2023-02-01T16:38:20;44.92;;;11.68;;
59161;SDS011;44942;48.936;8.260;2023-02-01T16:43:23;40.03;;;14.70;;
59161;SDS011;44942;48.936;8.260;2023-02-01T16:48:29;60.10;;;22.83;;
59161;SDS011;44942;48.936;8.260;2023-02-01T16:53:35;65.03;;;26.23;;
59161;SDS011;44942;48.936;8.260;2023-02-01T16:58:35;62.13;;;29.60;;
59161;SDS011;44942;48.936;8.260;2023-02-01T17:03:36;61.07;;;30.40;;
59161;SDS011;44942;48.936;8.260;2023-02-01T17:08:39;61.42;;;28.63;;
59161;SDS011;44942;48.936;8.260;2023-02-01T17:13:45;55.83;;;28.50;;
59161;SDS011;44942;48.936;8.260;2023-02-01T17:19:09;62.15;;;26.85;;
59161;SDS011;44942;48.936;8.260;2023-02-01T17:24:15;46.42;;;24.48;;
59161;SDS011;44942;48.936;8.260;2023-02-01T17:29:17;45.42;;;22.80;;
59161;SDS011;44942;48.936;8.260;2023-02-01T17:34:18;48.83;;;21.77;;
59161;SDS011;44942;48.936;8.260;2023-02-01T17:39:18;41.23;;;20.20;;
59161;SDS011;44942;48.936;8.260;2023-02-01T17:44:38;38.53;;;19.48;;
59161;SDS011;44942;48.936;8.260;2023-02-01T17:49:39;37.80;;;17.00;;
59161;SDS011;44942;48.936;8.260;2023-02-01T17:54:39;33.23;;;17.57;;
59161;SDS011;44942;48.936;8.260;2023-02-01T17:59:40;29.20;;;14.50;;
59161;SDS011;44942;48.936;8.260;2023-02-01T18:04:40;28.23;;;14.83;;
59161;SDS011;44942;48.936;8.260;2023-02-01T18:09:41;26.67;;;14.13;;
59161;SDS011;44942;48.936;8.260;2023-02-01T18:14:41;26.93;;;14.00;;
59161;SDS011;44942;48.936;8.260;2023-02-01T18:19:43;26.90;;;13.25;;
59161;SDS011;44942;48.936;8.260;2023-02-01T18:24:43;66.50;;;15.55;;
59161;SDS011;44942;48.936;8.260;2023-02-01T18:29:44;108.57;;;18.50;;
59161;SDS011;44942;48.936;8.260;2023-02-01T18:34:44;63.37;;;14.53;;
59161;SDS011;44942;48.936;8.260;2023-02-01T18:39:45;47.87;;;13.53;;
59161;SDS011;44942;48.936;8.260;2023-02-01T18:44:45;45.23;;;11.70;;
59161;SDS011;44942;48.936;8.260;2023-02-01T18:49:46;39.77;;;11.03;;
59161;SDS011;44942;48.936;8.260;2023-02-01T18:54:46;36.80;;;10.63;;
59161;SDS011;44942;48.936;8.260;2023-02-01T18:59:47;26.00;;;9.80;;
59161;SDS011;44942;48.936;8.260;2023-02-01T19:04:47;29.33;;;9.97;;
59161;SDS011;44942;48.936;8.260;2023-02-01T19:09:48;34.53;;;9.23;;
59161;SDS011;44942;48.936;8.260;2023-02-01T19:14:49;28.73;;;9.63;;
59161;SDS011;44942;48.936;8.260;2023-02-01T19:19:49;23.73;;;9.10;;
59161;SDS011;44942;48.936;8.260;2023-02-01T19:24:50;24.17;;;8.63;;
59161;SDS011;44942;48.936;8.260;2023-02-01T19:29:51;19.38;;;8.68;;
59161;SDS011;44942;48.936;8.260;2023-02-01T19:34:52;20.67;;;8.73;;
59161;SDS011;44942;48.936;8.260;2023-02-01T19:39:52;18.17;;;8.10;;
59161;SDS011;44942;48.936;8.260;2023-02-01T19:44:53;14.93;;;7.63;;
59161;SDS011;44942;48.936;8.260;2023-02-01T19:49:53;15.73;;;7.10;;
59161;SDS011;44942;48.936;8.260;2023-02-01T19:54:54;18.53;;;7.33;;
59161;SDS011;44942;48.936;8.260;2023-02-01T19:59:54;14.27;;;6.90;;
59161;SDS011;44942;48.936;8.260;2023-02-01T20:04:55;16.03;;;7.20;;
59161;SDS011;44942;48.936;8.260;2023-02-01T20:09:55;14.23;;;7.20;;
59161;SDS011;44942;48.936;8.260;2023-02-01T20:14:56;11.80;;;6.30;;
59161;SDS011;44942;48.936;8.260;2023-02-01T20:19:57;13.17;;;6.37;;
59161;SDS011;44942;48.936;8.260;2023-02-01T20:24:57;13.47;;;6.83;;
59161;SDS011;44942;48.936;8.260;2023-02-01T20:29:58;12.70;;;6.20;;
59161;SDS011;44942;48.936;8.260;2023-02-01T20:34:59;13.47;;;6.50;;
59161;SDS011;44942;48.936;8.260;2023-02-01T20:39:59;12.07;;;6.17;;
59161;SDS011;44942;48.936;8.260;2023-02-01T20:45:00;11.00;;;5.53;;
59161;SDS011;44942;48.936;8.260;2023-02-01T20:50:04;11.18;;;5.28;;
59161;SDS011;44942;48.936;8.260;2023-02-01T20:55:05;10.95;;;5.45;;
59161;SDS011;44942;48.936;8.260;2023-02-01T21:00:06;10.38;;;4.93;;
59161;SDS011;44942;48.936;8.260;2023-02-01T21:05:10;8.32;;;5.25;;
59161;SDS011;44942;48.936;8.260;2023-02-01T21:10:11;9.10;;;4.93;;
59161;SDS011;44942;48.936;8.260;2023-02-01T21:15:12;13.07;;;5.07;;
59161;SDS011;44942;48.936;8.260;2023-02-01T21:20:12;9.23;;;4.80;;
59161;SDS011;44942;48.936;8.260;2023-02-01T21:25:13;9.77;;;5.03;;
59161;SDS011;44942;48.936;8.260;2023-02-01T21:30:13;7.93;;;4.43;;
59161;SDS011;44942;48.936;8.260;2023-02-01T21:35:14;7.37;;;4.37;;
59161;SDS011;44942;48.936;8.260;2023-02-01T21:40:16;10.77;;;4.18;;
59161;SDS011;44942;48.936;8.260;2023-02-01T21:45:16;8.30;;;4.50;;
59161;SDS011;44942;48.936;8.260;2023-02-01T21:50:18;8.35;;;4.20;;
59161;SDS011;44942;48.936;8.260;2023-02-01T22:00:19;7.23;;;3.67;;
59161;SDS011;44942;48.936;8.260;2023-02-01T22:05:20;6.18;;;3.65;;
59161;SDS011;44942;48.936;8.260;2023-02-01T22:10:21;6.30;;;3.78;;
59161;SDS011;44942;48.936;8.260;2023-02-01T22:15:22;8.90;;;4.10;;
59161;SDS011;44942;48.936;8.260;2023-02-01T22:20:23;6.65;;;3.63;;
59161;SDS011;44942;48.936;8.260;2023-02-01T22:25:23;8.33;;;3.97;;
59161;SDS011;44942;48.936;8.260;2023-02-01T22:30:24;6.47;;;3.37;;
59161;SDS011;44942;48.936;8.260;2023-02-01T22:35:24;6.47;;;3.93;;
59161;SDS011;44942;48.936;8.260;2023-02-01T22:40:25;6.97;;;3.90;;
59161;SDS011;44942;48.936;8.260;2023-02-01T22:45:25;6.30;;;3.43;;
59161;SDS011;44942;48.936;8.260;2023-02-01T22:55:27;7.73;;;3.83;;
59161;SDS011;44942;48.936;8.260;2023-02-01T23:00:30;7.47;;;3.60;;
59161;SDS011;44942;48.936;8.260;2023-02-01T23:05:31;6.40;;;3.53;;
59161;SDS011;44942;48.936;8.260;2023-02-01T23:10:31;6.77;;;3.57;;
59161;SDS011;44942;48.936;8.260;2023-02-01T23:15:32;8.17;;;3.50;;
59161;SDS011;44942;48.936;8.260;2023-02-01T23:20:32;6.93;;;3.67;;
59161;SDS011;44942;48.936;8.260;2023-02-01T23:25:33;5.83;;;3.13;;
59161;SDS011;44942;48.936;8.260;2023-02-01T23:30:34;4.63;;;2.90;;
59161;SDS011;44942;48.936;8.260;2023-02-01T23:35:34;5.80;;;2.83;;
59161;SDS011;44942;48.936;8.260;2023-02-01T23:40:35;6.20;;;3.00;;
59161;SDS011;44942;48.936;8.260;2023-02-01T23:45:35;4.70;;;3.07;;
59161;SDS011;44942;48.936;8.260;2023-02-01T23:50:36;7.33;;;3.63;;
59161;SDS011;44942;48.936;8.260;2023-02-01T23:55:37;5.73;;;3.13;;
